sensor_id;sensor_type;location;lat;lon;timestamp;noise_LAeq;noise_LA_min;noise_LA_max;noise_LA01;noise_LA95
76339;Laerm;26644;50.248;19.032;2023-02-11T00:00:42;53.96;44.03;70.93;;
76339;Laerm;26644;50.248;19.032;2023-02-11T00:03:47;49.30;44.35;53.61;;
76339;Laerm;26644;50.248;19.032;2023-02-11T00:06:53;49.90;45.24;56.27;;
76339;Laerm;26644;50.248;19.032;2023-02-11T00:10:02;49.38;44.76;59.63;;
76339;Laerm;26644;50.248;19.032;2023-02-11T00:13:09;48.33;44.38;52.88;;
76339;Laerm;26644;50.248;19.032;2023-02-11T00:16:18;49.49;44.03;57.60;;
76339;Laerm;26644;50.248;19.032;2023-02-11T00:19:24;48.28;43.91;53.62;;
76339;Laerm;26644;50.248;19.032;2023-02-11T00:22:29;49.24;44.94;56.91;;
76339;Laerm;26644;50.248;19.032;2023-02-11T00:25:42;49.47;44.16;58.72;;
76339;Laerm;26644;50.248;19.032;2023-02-11T00:28:50;48.72;43.68;58.18;;
76339;Laerm;26644;50.248;19.032;2023-02-11T00:31:56;49.38;44.31;62.95;;
76339;Laerm;26644;50.248;19.032;2023-02-11T00:35:07;49.06;43.79;55.21;;
76339;Laerm;26644;50.248;19.032;2023-02-11T00:38:14;47.52;42.22;51.91;;
76339;Laerm;26644;50.248;19.032;2023-02-11T00:41:23;47.85;43.08;53.54;;
76339;Laerm;26644;50.248;19.032;2023-02-11T00:44:29;48.02;41.83;54.15;;
76339;Laerm;26644;50.248;19.032;2023-02-11T00:47:34;47.64;42.20;53.69;;
76339;Laerm;26644;50.248;19.032;2023-02-11T00:50:40;49.44;44.69;55.07;;
76339;Laerm;26644;50.248;19.032;2023-02-11T00:53:45;49.32;43.82;61.84;;
76339;Laerm;26644;50.248;19.032;2023-02-11T00:56:53;49.41;43.46;65.54;;
76339;Laerm;26644;50.248;19.032;2023-02-11T00:59:59;47.78;42.85;58.25;;
76339;Laerm;26644;50.248;19.032;2023-02-11T01:03:05;47.39;41.29;62.75;;
76339;Laerm;26644;50.248;19.032;2023-02-11T01:06:11;50.24;44.12;67.55;;
76339;Laerm;26644;50.248;19.032;2023-02-11T01:09:16;51.45;46.05;66.94;;
76339;Laerm;26644;50.248;19.032;2023-02-11T01:12:24;49.44;45.24;61.83;;
76339;Laerm;26644;50.248;19.032;2023-02-11T01:15:31;49.67;44.50;58.98;;
76339;Laerm;26644;50.248;19.032;2023-02-11T01:18:36;51.50;44.80;61.15;;
76339;Laerm;26644;50.248;19.032;2023-02-11T01:21:43;50.15;45.01;60.72;;
76339;Laerm;26644;50.248;19.032;2023-02-11T01:24:48;50.33;44.78;59.50;;
76339;Laerm;26644;50.248;19.032;2023-02-11T01:27:56;49.45;44.94;58.67;;
76339;Laerm;26644;50.248;19.032;2023-02-11T01:31:02;48.43;44.23;56.69;;
76339;Laerm;26644;50.248;19.032;2023-02-11T01:34:08;49.05;44.26;63.68;;
76339;Laerm;26644;50.248;19.032;2023-02-11T01:37:13;48.54;43.42;59.18;;
76339;Laerm;26644;50.248;19.032;2023-02-11T01:40:19;47.76;42.79;55.04;;
76339;Laerm;26644;50.248;19.032;2023-02-11T01:43:31;49.51;44.82;57.17;;
76339;Laerm;26644;50.248;19.032;2023-02-11T01:46:37;49.00;44.45;56.94;;
76339;Laerm;26644;50.248;19.032;2023-02-11T01:49:48;48.27;43.35;58.40;;
76339;Laerm;26644;50.248;19.032;2023-02-11T01:52:57;49.90;45.04;60.91;;
76339;Laerm;26644;50.248;19.032;2023-02-11T01:56:26;48.03;43.16;54.66;;
76339;Laerm;26644;50.248;19.032;2023-02-11T02:00:01;47.60;43.45;56.76;;
76339;Laerm;26644;50.248;19.032;2023-02-11T02:03:21;48.24;43.00;56.45;;
76339;Laerm;26644;50.248;19.032;2023-02-11T02:06:39;48.59;42.42;58.41;;
76339;Laerm;26644;50.248;19.032;2023-02-11T02:09:58;49.05;43.89;62.32;;
76339;Laerm;26644;50.248;19.032;2023-02-11T02:13:06;49.81;42.34;57.07;;
76339;Laerm;26644;50.248;19.032;2023-02-11T02:16:17;48.91;43.64;59.61;;
76339;Laerm;26644;50.248;19.032;2023-02-11T02:24:07;50.47;43.76;67.13;;
76339;Laerm;26644;50.248;19.032;2023-02-11T02:27:44;50.90;44.04;69.64;;
76339;Laerm;26644;50.248;19.032;2023-02-11T02:31:37;51.07;44.94;68.10;;
76339;Laerm;26644;50.248;19.032;2023-02-11T02:34:57;50.35;43.25;63.41;;
76339;Laerm;26644;50.248;19.032;2023-02-11T02:38:12;49.82;44.56;66.44;;
76339;Laerm;26644;50.248;19.032;2023-02-11T02:41:27;50.49;44.08;69.77;;
76339;Laerm;26644;50.248;19.032;2023-02-11T02:44:36;49.85;45.33;65.33;;
76339;Laerm;26644;50.248;19.032;2023-02-11T02:47:42;49.78;45.63;61.94;;
76339;Laerm;26644;50.248;19.032;2023-02-11T02:51:07;49.63;44.70;65.83;;
76339;Laerm;26644;50.248;19.032;2023-02-11T02:54:57;50.32;43.90;67.59;;
76339;Laerm;26644;50.248;19.032;2023-02-11T02:58:41;50.72;44.93;65.65;;
76339;Laerm;26644;50.248;19.032;2023-02-11T03:02:06;51.35;45.00;66.12;;
76339;Laerm;26644;50.248;19.032;2023-02-11T03:05:24;49.82;45.13;68.15;;
76339;Laerm;26644;50.248;19.032;2023-02-11T03:08:45;51.14;46.23;60.67;;
76339;Laerm;26644;50.248;19.032;2023-02-11T03:11:53;51.29;46.29;64.98;;
76339;Laerm;26644;50.248;19.032;2023-02-11T03:15:05;50.35;45.16;65.09;;
76339;Laerm;26644;50.248;19.032;2023-02-11T03:18:16;50.77;44.65;62.28;;
76339;Laerm;26644;50.248;19.032;2023-02-11T03:21:24;48.94;43.95;60.42;;
76339;Laerm;26644;50.248;19.032;2023-02-11T03:24:37;48.89;44.46;55.89;;
76339;Laerm;26644;50.248;19.032;2023-02-11T03:27:54;48.72;43.75;59.58;;
76339;Laerm;26644;50.248;19.032;2023-02-11T03:31:15;47.95;42.18;57.76;;
76339;Laerm;26644;50.248;19.032;2023-02-11T03:34:32;48.13;43.19;56.82;;
76339;Laerm;26644;50.248;19.032;2023-02-11T03:37:49;48.23;42.97;56.53;;
76339;Laerm;26644;50.248;19.032;2023-02-11T03:41:04;48.09;43.54;57.59;;
76339;Laerm;26644;50.248;19.032;2023-02-11T03:44:15;49.45;44.20;63.81;;
76339;Laerm;26644;50.248;19.032;2023-02-11T03:47:27;49.75;43.90;62.39;;
76339;Laerm;26644;50.248;19.032;2023-02-11T03:50:36;49.97;44.92;64.66;;
76339;Laerm;26644;50.248;19.032;2023-02-11T03:53:46;48.80;43.36;61.84;;
76339;Laerm;26644;50.248;19.032;2023-02-11T03:56:59;50.17;45.36;62.18;;
76339;Laerm;26644;50.248;19.032;2023-02-11T04:00:08;51.33;45.31;70.07;;
76339;Laerm;26644;50.248;19.032;2023-02-11T04:03:13;52.92;46.32;73.94;;
76339;Laerm;26644;50.248;19.032;2023-02-11T04:06:20;52.79;46.17;72.07;;
76339;Laerm;26644;50.248;19.032;2023-02-11T04:09:25;53.71;47.91;70.05;;
76339;Laerm;26644;50.248;19.032;2023-02-11T04:12:33;53.24;45.59;68.98;;
76339;Laerm;26644;50.248;19.032;2023-02-11T04:15:38;52.04;46.84;67.89;;
76339;Laerm;26644;50.248;19.032;2023-02-11T04:18:44;51.14;45.77;64.44;;
76339;Laerm;26644;50.248;19.032;2023-02-11T04:21:49;52.50;46.15;64.44;;
76339;Laerm;26644;50.248;19.032;2023-02-11T04:24:55;52.05;46.24;69.89;;
76339;Laerm;26644;50.248;19.032;2023-02-11T04:28:03;50.88;46.80;64.78;;
76339;Laerm;26644;50.248;19.032;2023-02-11T04:31:09;52.96;47.59;76.74;;
76339;Laerm;26644;50.248;19.032;2023-02-11T04:34:15;51.73;47.75;62.03;;
76339;Laerm;26644;50.248;19.032;2023-02-11T04:37:21;50.79;46.48;61.25;;
76339;Laerm;26644;50.248;19.032;2023-02-11T04:40:25;50.87;46.06;66.74;;
76339;Laerm;26644;50.248;19.032;2023-02-11T04:43:34;51.03;46.70;70.28;;
76339;Laerm;26644;50.248;19.032;2023-02-11T04:46:39;51.88;45.66;59.23;;
76339;Laerm;26644;50.248;19.032;2023-02-11T04:49:45;51.37;47.25;59.32;;
76339;Laerm;26644;50.248;19.032;2023-02-11T04:52:50;50.42;46.14;59.65;;
76339;Laerm;26644;50.248;19.032;2023-02-11T04:55:56;50.87;45.11;62.19;;
76339;Laerm;26644;50.248;19.032;2023-02-11T04:59:05;50.24;45.85;60.55;;
76339;Laerm;26644;50.248;19.032;2023-02-11T05:02:11;50.91;46.47;62.34;;
76339;Laerm;26644;50.248;19.032;2023-02-11T05:05:16;50.34;46.18;62.15;;
76339;Laerm;26644;50.248;19.032;2023-02-11T05:08:22;50.77;45.77;63.68;;
76339;Laerm;26644;50.248;19.032;2023-02-11T05:11:27;52.27;48.17;63.84;;
76339;Laerm;26644;50.248;19.032;2023-02-11T05:14:35;52.83;46.98;67.65;;
76339;Laerm;26644;50.248;19.032;2023-02-11T05:17:40;52.18;47.01;66.67;;
76339;Laerm;26644;50.248;19.032;2023-02-11T05:20:46;52.20;46.57;60.93;;
76339;Laerm;26644;50.248;19.032;2023-02-11T05:23:51;52.54;48.42;62.52;;
76339;Laerm;26644;50.248;19.032;2023-02-11T05:26:57;51.59;47.08;59.36;;
76339;Laerm;26644;50.248;19.032;2023-02-11T05:30:06;52.20;48.48;63.30;;
76339;Laerm;26644;50.248;19.032;2023-02-11T05:33:12;51.92;47.27;61.30;;
76339;Laerm;26644;50.248;19.032;2023-02-11T05:36:17;51.61;47.57;63.71;;
76339;Laerm;26644;50.248;19.032;2023-02-11T05:39:23;52.41;47.83;70.18;;
76339;Laerm;26644;50.248;19.032;2023-02-11T05:42:28;52.26;47.60;64.87;;
76339;Laerm;26644;50.248;19.032;2023-02-11T05:45:36;52.43;47.23;66.34;;
76339;Laerm;26644;50.248;19.032;2023-02-11T05:48:41;51.77;46.59;64.46;;
76339;Laerm;26644;50.248;19.032;2023-02-11T05:51:47;51.96;47.36;60.55;;
76339;Laerm;26644;50.248;19.032;2023-02-11T05:54:52;61.35;47.33;93.18;;
76339;Laerm;26644;50.248;19.032;2023-02-11T05:57:58;55.49;49.38;76.96;;
76339;Laerm;26644;50.248;19.032;2023-02-11T06:01:06;53.56;47.69;65.10;;
76339;Laerm;26644;50.248;19.032;2023-02-11T06:04:12;53.29;48.92;67.12;;
76339;Laerm;26644;50.248;19.032;2023-02-11T06:07:17;54.17;50.14;65.61;;
76339;Laerm;26644;50.248;19.032;2023-02-11T06:10:23;52.30;48.09;59.41;;
76339;Laerm;26644;50.248;19.032;2023-02-11T06:13:27;52.58;48.54;66.41;;
76339;Laerm;26644;50.248;19.032;2023-02-11T06:16:36;53.75;48.40;68.48;;
76339;Laerm;26644;50.248;19.032;2023-02-11T06:19:41;53.46;49.13;63.04;;
76339;Laerm;26644;50.248;19.032;2023-02-11T06:22:47;53.77;49.30;76.24;;
76339;Laerm;26644;50.248;19.032;2023-02-11T06:25:52;53.34;48.98;66.18;;
76339;Laerm;26644;50.248;19.032;2023-02-11T06:29:00;53.45;49.61;60.62;;
76339;Laerm;26644;50.248;19.032;2023-02-11T06:32:07;55.27;49.54;69.47;;
76339;Laerm;26644;50.248;19.032;2023-02-11T06:35:14;54.31;50.26;68.59;;
76339;Laerm;26644;50.248;19.032;2023-02-11T06:38:19;55.18;50.09;72.19;;
76339;Laerm;26644;50.248;19.032;2023-02-11T06:41:25;54.22;49.99;67.40;;
76339;Laerm;26644;50.248;19.032;2023-02-11T06:44:30;55.76;50.67;75.14;;
76339;Laerm;26644;50.248;19.032;2023-02-11T06:47:39;55.43;50.87;72.14;;
76339;Laerm;26644;50.248;19.032;2023-02-11T06:50:45;55.03;48.84;70.41;;
76339;Laerm;26644;50.248;19.032;2023-02-11T06:53:51;55.68;50.64;70.26;;
76339;Laerm;26644;50.248;19.032;2023-02-11T06:56:56;56.96;49.86;74.17;;
76339;Laerm;26644;50.248;19.032;2023-02-11T07:00:02;55.60;50.87;69.77;;
76339;Laerm;26644;50.248;19.032;2023-02-11T07:03:10;56.45;50.51;73.93;;
76339;Laerm;26644;50.248;19.032;2023-02-11T07:06:19;58.92;51.62;85.80;;
76339;Laerm;26644;50.248;19.032;2023-02-11T07:09:25;55.55;50.44;77.03;;
76339;Laerm;26644;50.248;19.032;2023-02-11T07:12:31;55.44;51.30;69.50;;
76339;Laerm;26644;50.248;19.032;2023-02-11T07:15:36;56.33;52.08;70.71;;
76339;Laerm;26644;50.248;19.032;2023-02-11T07:18:47;55.98;50.81;76.79;;
76339;Laerm;26644;50.248;19.032;2023-02-11T07:21:52;58.37;50.52;86.89;;
76339;Laerm;26644;50.248;19.032;2023-02-11T07:24:57;55.29;50.71;68.66;;
76339;Laerm;26644;50.248;19.032;2023-02-11T07:28:03;60.33;50.92;86.81;;
76339;Laerm;26644;50.248;19.032;2023-02-11T07:31:13;55.73;51.74;69.36;;
76339;Laerm;26644;50.248;19.032;2023-02-11T07:34:21;54.90;50.73;64.21;;
76339;Laerm;26644;50.248;19.032;2023-02-11T07:37:27;54.94;50.85;65.31;;
76339;Laerm;26644;50.248;19.032;2023-02-11T07:40:32;55.46;51.06;69.71;;
76339;Laerm;26644;50.248;19.032;2023-02-11T07:43:39;59.68;51.62;88.32;;
76339;Laerm;26644;50.248;19.032;2023-02-11T07:46:44;55.79;51.42;63.28;;
76339;Laerm;26644;50.248;19.032;2023-02-11T07:49:53;56.61;51.73;73.47;;
76339;Laerm;26644;50.248;19.032;2023-02-11T07:52:58;56.70;51.84;74.36;;
76339;Laerm;26644;50.248;19.032;2023-02-11T07:56:06;58.76;52.66;81.91;;
76339;Laerm;26644;50.248;19.032;2023-02-11T07:59:12;56.18;52.09;70.00;;
76339;Laerm;26644;50.248;19.032;2023-02-11T08:02:18;55.90;51.28;72.37;;
76339;Laerm;26644;50.248;19.032;2023-02-11T08:05:26;58.19;51.51;79.87;;
76339;Laerm;26644;50.248;19.032;2023-02-11T08:08:32;57.91;50.88;76.62;;
76339;Laerm;26644;50.248;19.032;2023-02-11T08:11:37;56.94;51.70;75.66;;
76339;Laerm;26644;50.248;19.032;2023-02-11T08:14:43;57.01;51.55;76.28;;
76339;Laerm;26644;50.248;19.032;2023-02-11T08:17:48;57.88;51.56;77.45;;
76339;Laerm;26644;50.248;19.032;2023-02-11T08:21:04;55.61;51.40;70.82;;
76339;Laerm;26644;50.248;19.032;2023-02-11T08:24:10;55.86;51.40;72.15;;
76339;Laerm;26644;50.248;19.032;2023-02-11T08:27:16;60.50;52.42;79.26;;
76339;Laerm;26644;50.248;19.032;2023-02-11T08:30:21;56.99;52.31;74.99;;
76339;Laerm;26644;50.248;19.032;2023-02-11T08:33:27;57.48;52.68;72.35;;
76339;Laerm;26644;50.248;19.032;2023-02-11T08:36:37;58.72;52.90;79.40;;
76339;Laerm;26644;50.248;19.032;2023-02-11T08:39:43;57.45;51.64;71.46;;
76339;Laerm;26644;50.248;19.032;2023-02-11T08:42:48;56.74;51.36;69.82;;
76339;Laerm;26644;50.248;19.032;2023-02-11T08:45:54;57.09;50.97;70.42;;
76339;Laerm;26644;50.248;19.032;2023-02-11T08:48:59;55.20;51.17;66.04;;
76339;Laerm;26644;50.248;19.032;2023-02-11T08:52:07;55.69;51.62;70.69;;
76339;Laerm;26644;50.248;19.032;2023-02-11T08:55:12;55.77;51.58;69.65;;
76339;Laerm;26644;50.248;19.032;2023-02-11T08:58:19;54.37;51.19;62.34;;
76339;Laerm;26644;50.248;19.032;2023-02-11T09:01:28;55.18;51.67;68.85;;
76339;Laerm;26644;50.248;19.032;2023-02-11T09:04:35;54.36;51.41;61.45;;
76339;Laerm;26644;50.248;19.032;2023-02-11T09:07:42;54.47;50.52;62.65;;
76339;Laerm;26644;50.248;19.032;2023-02-11T09:10:48;55.35;50.96;65.34;;
76339;Laerm;26644;50.248;19.032;2023-02-11T09:13:53;54.95;50.78;62.49;;
76339;Laerm;26644;50.248;19.032;2023-02-11T09:16:59;54.73;50.51;71.90;;
76339;Laerm;26644;50.248;19.032;2023-02-11T09:20:05;54.19;50.54;58.60;;
76339;Laerm;26644;50.248;19.032;2023-02-11T09:23:14;55.14;51.05;63.31;;
76339;Laerm;26644;50.248;19.032;2023-02-11T09:26:21;55.85;51.04;71.52;;
76339;Laerm;26644;50.248;19.032;2023-02-11T09:29:27;56.32;51.54;72.60;;
76339;Laerm;26644;50.248;19.032;2023-02-11T09:32:33;55.44;50.89;74.05;;
76339;Laerm;26644;50.248;19.032;2023-02-11T09:35:39;56.81;52.24;70.36;;
76339;Laerm;26644;50.248;19.032;2023-02-11T09:38:47;56.57;52.40;71.72;;
76339;Laerm;26644;50.248;19.032;2023-02-11T09:42:27;57.12;52.19;75.96;;
76339;Laerm;26644;50.248;19.032;2023-02-11T09:45:39;55.93;50.65;68.67;;
76339;Laerm;26644;50.248;19.032;2023-02-11T09:48:50;56.56;52.27;68.26;;
76339;Laerm;26644;50.248;19.032;2023-02-11T09:52:05;56.44;51.73;72.45;;
76339;Laerm;26644;50.248;19.032;2023-02-11T09:55:24;55.59;51.80;71.36;;
76339;Laerm;26644;50.248;19.032;2023-02-11T09:58:35;55.89;52.14;67.75;;
76339;Laerm;26644;50.248;19.032;2023-02-11T10:01:50;55.18;51.21;65.08;;
76339;Laerm;26644;50.248;19.032;2023-02-11T10:05:33;54.73;50.23;61.75;;
76339;Laerm;26644;50.248;19.032;2023-02-11T10:08:59;55.62;51.24;70.01;;
76339;Laerm;26644;50.248;19.032;2023-02-11T10:12:38;57.31;52.29;74.09;;
76339;Laerm;26644;50.248;19.032;2023-02-11T10:16:00;56.28;52.15;71.00;;
76339;Laerm;26644;50.248;19.032;2023-02-11T10:19:35;56.52;51.94;71.18;;
76339;Laerm;26644;50.248;19.032;2023-02-11T10:22:49;55.51;51.30;69.98;;
76339;Laerm;26644;50.248;19.032;2023-02-11T10:25:57;55.99;51.52;68.85;;
76339;Laerm;26644;50.248;19.032;2023-02-11T10:29:32;57.35;51.78;77.45;;
76339;Laerm;26644;50.248;19.032;2023-02-11T10:32:48;57.12;51.83;72.57;;
76339;Laerm;26644;50.248;19.032;2023-02-11T10:35:56;55.79;51.98;62.41;;
76339;Laerm;26644;50.248;19.032;2023-02-11T10:39:10;55.83;51.59;76.07;;
76339;Laerm;26644;50.248;19.032;2023-02-11T10:42:17;55.05;51.16;72.83;;
76339;Laerm;26644;50.248;19.032;2023-02-11T10:45:33;57.54;52.52;71.78;;
76339;Laerm;26644;50.248;19.032;2023-02-11T10:48:46;56.08;51.68;73.91;;
76339;Laerm;26644;50.248;19.032;2023-02-11T10:52:20;57.17;53.00;70.30;;
76339;Laerm;26644;50.248;19.032;2023-02-11T10:55:27;58.21;53.12;75.86;;
76339;Laerm;26644;50.248;19.032;2023-02-11T10:58:40;56.91;52.17;68.39;;
76339;Laerm;26644;50.248;19.032;2023-02-11T11:01:56;58.31;52.93;76.59;;
76339;Laerm;26644;50.248;19.032;2023-02-11T11:05:14;60.37;53.31;81.96;;
76339;Laerm;26644;50.248;19.032;2023-02-11T11:08:21;59.38;52.41;81.53;;
76339;Laerm;26644;50.248;19.032;2023-02-11T11:11:26;59.39;52.15;80.52;;
76339;Laerm;26644;50.248;19.032;2023-02-11T11:14:32;55.96;51.37;68.51;;
76339;Laerm;26644;50.248;19.032;2023-02-11T11:17:39;55.10;51.35;64.41;;
76339;Laerm;26644;50.248;19.032;2023-02-11T11:20:58;55.11;51.62;63.85;;
76339;Laerm;26644;50.248;19.032;2023-02-11T11:24:04;55.90;50.96;67.08;;
76339;Laerm;26644;50.248;19.032;2023-02-11T11:27:23;56.66;52.43;72.71;;
76339;Laerm;26644;50.248;19.032;2023-02-11T11:30:40;55.30;51.04;65.30;;
76339;Laerm;26644;50.248;19.032;2023-02-11T11:33:53;56.29;51.29;70.49;;
76339;Laerm;26644;50.248;19.032;2023-02-11T11:37:09;55.09;51.65;64.70;;
76339;Laerm;26644;50.248;19.032;2023-02-11T11:40:23;55.57;51.40;64.90;;
76339;Laerm;26644;50.248;19.032;2023-02-11T11:43:28;56.53;52.16;74.23;;
76339;Laerm;26644;50.248;19.032;2023-02-11T11:46:39;56.32;51.59;73.22;;
76339;Laerm;26644;50.248;19.032;2023-02-11T11:50:14;55.97;52.46;65.86;;
76339;Laerm;26644;50.248;19.032;2023-02-11T11:53:34;56.06;52.57;66.51;;
76339;Laerm;26644;50.248;19.032;2023-02-11T11:56:56;56.69;51.87;72.91;;
76339;Laerm;26644;50.248;19.032;2023-02-11T12:00:13;55.42;50.81;69.81;;
76339;Laerm;26644;50.248;19.032;2023-02-11T12:04:09;54.85;50.83;68.39;;
76339;Laerm;26644;50.248;19.032;2023-02-11T12:07:39;56.50;52.15;69.15;;
76339;Laerm;26644;50.248;19.032;2023-02-11T12:11:11;56.34;52.46;70.99;;
76339;Laerm;26644;50.248;19.032;2023-02-11T12:14:36;55.26;51.96;61.08;;
76339;Laerm;26644;50.248;19.032;2023-02-11T12:18:07;55.51;52.08;65.04;;
76339;Laerm;26644;50.248;19.032;2023-02-11T12:21:38;55.16;51.54;61.28;;
76339;Laerm;26644;50.248;19.032;2023-02-11T12:25:11;54.92;51.18;70.89;;
76339;Laerm;26644;50.248;19.032;2023-02-11T12:28:37;55.32;51.78;62.75;;
76339;Laerm;26644;50.248;19.032;2023-02-11T12:32:02;55.07;51.38;70.38;;
76339;Laerm;26644;50.248;19.032;2023-02-11T12:35:30;55.82;52.05;64.63;;
76339;Laerm;26644;50.248;19.032;2023-02-11T12:39:11;57.18;52.25;71.96;;
76339;Laerm;26644;50.248;19.032;2023-02-11T12:42:42;56.39;52.37;69.37;;
76339;Laerm;26644;50.248;19.032;2023-02-11T12:46:36;58.25;51.91;76.54;;
76339;Laerm;26644;50.248;19.032;2023-02-11T12:50:10;57.40;53.04;75.49;;
76339;Laerm;26644;50.248;19.032;2023-02-11T12:53:43;57.25;53.23;70.79;;
76339;Laerm;26644;50.248;19.032;2023-02-11T12:57:00;57.87;52.38;74.25;;
76339;Laerm;26644;50.248;19.032;2023-02-11T13:00:17;57.11;53.06;71.55;;
76339;Laerm;26644;50.248;19.032;2023-02-11T13:03:33;57.00;52.69;67.51;;
76339;Laerm;26644;50.248;19.032;2023-02-11T13:06:44;56.95;52.96;70.51;;
76339;Laerm;26644;50.248;19.032;2023-02-11T13:09:58;56.87;53.10;69.60;;
76339;Laerm;26644;50.248;19.032;2023-02-11T13:13:19;57.28;52.60;75.11;;
76339;Laerm;26644;50.248;19.032;2023-02-11T13:16:37;56.68;52.65;71.11;;
76339;Laerm;26644;50.248;19.032;2023-02-11T13:19:52;57.40;53.46;67.68;;
76339;Laerm;26644;50.248;19.032;2023-02-11T13:23:21;57.46;52.55;76.00;;
76339;Laerm;26644;50.248;19.032;2023-02-11T13:26:39;56.33;52.56;68.10;;
76339;Laerm;26644;50.248;19.032;2023-02-11T13:30:23;56.65;52.56;73.59;;
76339;Laerm;26644;50.248;19.032;2023-02-11T13:33:36;56.76;52.53;73.10;;
76339;Laerm;26644;50.248;19.032;2023-02-11T13:36:55;57.15;52.60;72.47;;
76339;Laerm;26644;50.248;19.032;2023-02-11T13:40:05;57.58;53.17;71.06;;
76339;Laerm;26644;50.248;19.032;2023-02-11T13:43:23;58.81;53.07;73.67;;
76339;Laerm;26644;50.248;19.032;2023-02-11T13:46:50;56.98;52.96;69.04;;
76339;Laerm;26644;50.248;19.032;2023-02-11T13:50:06;57.60;53.44;72.38;;
76339;Laerm;26644;50.248;19.032;2023-02-11T13:53:11;57.13;51.95;72.08;;
76339;Laerm;26644;50.248;19.032;2023-02-11T13:56:29;56.12;52.66;66.80;;
76339;Laerm;26644;50.248;19.032;2023-02-11T13:59:47;56.87;53.37;67.73;;
76339;Laerm;26644;50.248;19.032;2023-02-11T14:03:28;55.04;51.76;67.54;;
76339;Laerm;26644;50.248;19.032;2023-02-11T14:07:28;55.13;51.25;60.58;;
76339;Laerm;26644;50.248;19.032;2023-02-11T14:10:54;62.49;51.80;83.14;;
76339;Laerm;26644;50.248;19.032;2023-02-11T14:14:16;55.27;51.68;60.70;;
76339;Laerm;26644;50.248;19.032;2023-02-11T14:17:31;55.04;51.39;62.73;;
76339;Laerm;26644;50.248;19.032;2023-02-11T14:20:42;55.74;51.59;70.86;;
76339;Laerm;26644;50.248;19.032;2023-02-11T14:24:38;55.13;51.45;66.95;;
76339;Laerm;26644;50.248;19.032;2023-02-11T14:27:28;55.84;52.02;65.84;;
76339;Laerm;26644;50.248;19.032;2023-02-11T14:30:50;56.05;52.05;68.99;;
76339;Laerm;26644;50.248;19.032;2023-02-11T14:34:35;57.79;52.88;76.20;;
76339;Laerm;26644;50.248;19.032;2023-02-11T14:37:58;57.69;51.95;75.83;;
76339;Laerm;26644;50.248;19.032;2023-02-11T14:41:21;55.71;51.94;62.30;;
76339;Laerm;26644;50.248;19.032;2023-02-11T14:44:32;55.71;52.28;72.15;;
76339;Laerm;26644;50.248;19.032;2023-02-11T14:47:46;55.28;52.03;64.70;;
76339;Laerm;26644;50.248;19.032;2023-02-11T14:51:02;55.52;51.76;64.59;;
76339;Laerm;26644;50.248;19.032;2023-02-11T14:54:16;56.15;51.49;68.09;;
76339;Laerm;26644;50.248;19.032;2023-02-11T14:57:30;55.77;51.73;68.76;;
76339;Laerm;26644;50.248;19.032;2023-02-11T15:00:35;55.45;52.22;65.38;;
76339;Laerm;26644;50.248;19.032;2023-02-11T15:03:47;55.48;52.34;64.28;;
76339;Laerm;26644;50.248;19.032;2023-02-11T15:07:05;55.94;52.47;71.74;;
76339;Laerm;26644;50.248;19.032;2023-02-11T15:10:24;56.20;51.56;73.95;;
76339;Laerm;26644;50.248;19.032;2023-02-11T15:13:34;55.35;51.84;59.39;;
76339;Laerm;26644;50.248;19.032;2023-02-11T15:16:44;55.48;52.04;62.18;;
76339;Laerm;26644;50.248;19.032;2023-02-11T15:19:55;55.96;51.76;66.03;;
76339;Laerm;26644;50.248;19.032;2023-02-11T15:23:10;55.88;51.57;65.21;;
76339;Laerm;26644;50.248;19.032;2023-02-11T15:26:21;55.73;51.96;63.76;;
76339;Laerm;26644;50.248;19.032;2023-02-11T15:29:38;55.27;51.62;61.42;;
76339;Laerm;26644;50.248;19.032;2023-02-11T15:32:43;55.34;51.39;63.62;;
76339;Laerm;26644;50.248;19.032;2023-02-11T15:35:49;56.30;52.19;64.82;;
76339;Laerm;26644;50.248;19.032;2023-02-11T15:39:17;55.08;51.47;62.58;;
76339;Laerm;26644;50.248;19.032;2023-02-11T15:42:26;55.18;51.72;63.04;;
76339;Laerm;26644;50.248;19.032;2023-02-11T15:45:38;55.31;51.75;63.43;;
76339;Laerm;26644;50.248;19.032;2023-02-11T15:48:50;55.41;52.25;62.73;;
76339;Laerm;26644;50.248;19.032;2023-02-11T15:51:57;55.50;52.48;65.03;;
76339;Laerm;26644;50.248;19.032;2023-02-11T15:55:04;55.37;51.78;62.80;;
76339;Laerm;26644;50.248;19.032;2023-02-11T15:58:10;55.43;52.01;65.30;;
76339;Laerm;26644;50.248;19.032;2023-02-11T16:01:29;55.24;52.53;63.77;;
76339;Laerm;26644;50.248;19.032;2023-02-11T16:04:36;55.68;51.92;65.29;;
76339;Laerm;26644;50.248;19.032;2023-02-11T16:07:46;55.32;51.29;62.07;;
76339;Laerm;26644;50.248;19.032;2023-02-11T16:10:57;54.73;51.18;71.46;;
76339;Laerm;26644;50.248;19.032;2023-02-11T16:14:26;54.98;51.79;69.03;;
76339;Laerm;26644;50.248;19.032;2023-02-11T16:17:34;55.62;51.74;66.81;;
76339;Laerm;26644;50.248;19.032;2023-02-11T16:20:40;55.15;51.66;61.74;;
76339;Laerm;26644;50.248;19.032;2023-02-11T16:23:55;56.28;51.76;72.15;;
76339;Laerm;26644;50.248;19.032;2023-02-11T16:27:06;55.83;52.60;63.73;;
76339;Laerm;26644;50.248;19.032;2023-02-11T16:30:27;56.06;52.51;71.35;;
76339;Laerm;26644;50.248;19.032;2023-02-11T16:33:36;56.29;52.71;65.98;;
76339;Laerm;26644;50.248;19.032;2023-02-11T16:36:41;59.14;53.11;69.31;;
76339;Laerm;26644;50.248;19.032;2023-02-11T16:39:47;55.63;51.83;67.92;;
76339;Laerm;26644;50.248;19.032;2023-02-11T16:42:52;55.59;52.25;66.91;;
76339;Laerm;26644;50.248;19.032;2023-02-11T16:45:58;55.68;52.24;62.82;;
76339;Laerm;26644;50.248;19.032;2023-02-11T16:49:11;55.02;51.68;61.33;;
76339;Laerm;26644;50.248;19.032;2023-02-11T16:52:21;55.19;51.62;62.92;;
76339;Laerm;26644;50.248;19.032;2023-02-11T16:55:26;55.36;52.15;62.94;;
76339;Laerm;26644;50.248;19.032;2023-02-11T16:58:32;54.71;50.41;66.02;;
76339;Laerm;26644;50.248;19.032;2023-02-11T17:01:40;55.30;51.16;67.33;;
76339;Laerm;26644;50.248;19.032;2023-02-11T17:04:49;57.14;51.74;73.05;;
76339;Laerm;26644;50.248;19.032;2023-02-11T17:07:55;54.81;51.37;60.40;;
76339;Laerm;26644;50.248;19.032;2023-02-11T17:11:04;56.29;51.21;76.23;;
76339;Laerm;26644;50.248;19.032;2023-02-11T17:14:09;59.68;52.16;80.23;;
76339;Laerm;26644;50.248;19.032;2023-02-11T17:17:15;55.10;51.66;62.72;;
76339;Laerm;26644;50.248;19.032;2023-02-11T17:20:25;58.11;51.73;80.91;;
76339;Laerm;26644;50.248;19.032;2023-02-11T17:23:30;54.73;51.63;58.49;;
76339;Laerm;26644;50.248;19.032;2023-02-11T17:26:36;54.98;51.04;59.82;;
76339;Laerm;26644;50.248;19.032;2023-02-11T17:29:41;54.67;51.14;65.32;;
76339;Laerm;26644;50.248;19.032;2023-02-11T17:32:46;58.20;50.16;69.62;;
76339;Laerm;26644;50.248;19.032;2023-02-11T17:35:55;55.13;51.87;64.11;;
76339;Laerm;26644;50.248;19.032;2023-02-11T17:39:01;55.25;50.61;61.93;;
76339;Laerm;26644;50.248;19.032;2023-02-11T17:42:07;56.04;51.01;68.70;;
76339;Laerm;26644;50.248;19.032;2023-02-11T17:45:12;55.39;52.20;65.97;;